Friday, May 06, 2016
13:03 UTC
  |  Log In   |  Register Free
Airport Search:

Owosso Community Airport
(KRNP)

Owosso Community Airport Diagram
No Airport Diagram Available

FAA data valid effective Mar 31 2016 - May 26 2016 (unless otherwise noted).

 
 
 
 
 
 
 
 
 
 
 
 
 
 
Current Aviation Weather for KRNP

Weather Summary


The most recent METAR observation for RNP was updated at: 13:15 UTC
METAR for KRNP is not available. Closest METAR is for KFNT
KRNP  (most recent observation was updatred at 61:25 UTC)
061255Z AUTO 00000KT 10SM CLR 11/08 A2998 RMK AO2 T01060078

KFNT  (17.4 nm NW)   (most recent observation was updated at 61:25 UTC)
061253Z 27003KT 10SM CLR 12/07 A2998 RMK AO2 SLP155 T01220072

KOZW  (22.9 nm NW)   (most recent observation was updated at 61:25 UTC)
061254Z AUTO 00000KT 10SM CLR 11/07 A2998 RMK AO2 T01070068

TAF for KRNP is not available.
KFNT  (17.4 nm NW)   (most recent observation was updatred at 61:12 UTC)
061126Z 0612/0712 35004KT P6SM SKC FM061600 30007KT P6SM SKC FM070100 VRB03KT P6SM BKN250 FM070900 22005KT P6SM SCT050 BKN100


KLAN  (23.5 nm NE)   (most recent observation was updatred at 61:14 UTC)
061140Z 0612/0712 25007KT P6SM SKC


KMBS  (32.5 nm SW)   (most recent observation was updatred at 61:12 UTC)
061126Z 0612/0712 03006KT P6SM SKC FM061600 26008KT P6SM SKC FM070100 22005KT P6SM SCT100 BKN250 FM070800 27005KT P6SM SCT040 BKN100
GlobalAir.com is loading additional information.
 Current Weather at RNP
44.0 F° (6.9 C°)

North winds at 0.0 mph
Pressure:
29.96 in
Humidity:
100%
Wind:
North at 0.0 mph
Dew Point:
44.4 F° (6.9 C°)
Visibility:
10.00 mi
RNP NOAA Radar




Find All Airport Services Find A Hotel Find A Rental Car Find A Golf Course Find A Restaurant $100 Hamburger



Airport Weather Forecast for KRNP

Translated METAR for KRNP (1255 UTC)
METAR:
KRNP 061255Z AUTO 00000KT 10SM CLR 11/08 A2998 RMK AO2 T01060078
Conditions at:
KRNP (Owosso Community, MI) observed 1255 UTC 06 May 2016
Temperature:
11°C (51.8°F)
Dewpoint:
8°C (46.4°F) [RH = 81.8]
Pressure:
29.98 inches Hg (1015.2 mb)
Winds:
from the N (000 degrees) at 0 mph (0 knots: 0 m/s)
Visibility:
10 mile(s)
Ceiling:
at least 12,000 feet AGL
Clouds:
Clear below 12,000 feet AGL
Remarks:
site is un-manned
site is automated and HAS a precipitation sensor

Translated TAF for KFNT (Bishop Intl, MI) (1126 UTC)
TAF text:
KFNT 061126Z 0612/0712 35004KT P6SM SKC
Forecast period:
Friday May 06 2016 12:00 UTC - Saturday May 07 2016 12:00 UTC
Forecast type:
FROM: standard forecast or significant change
Winds:
from the N (350 degrees) at 4.6 mph (4 knots: 2.1 m/s)
Visibility:
6 or more mile(s) (9.7+ km)
Ceiling:
at least 12,000 feet AGL
Clouds:
Clear Skies
Weather:
no significant weather observed at this time
TAF text:
FM061600 30007KT P6SM SKC
Forecast period:
Friday May 06 2016 16:00 UTC - Saturday May 07 2016 01:00 UTC
Forecast type:
FROM: standard forecast or significant change
Winds:
from the WNW (300 degrees) at 8.1 mph (7 knots: 3.6 m/s)
Visibility:
6 or more mile(s) (9.7+ km)
Ceiling:
at least 12,000 feet AGL
Clouds:
Clear Skies
Weather:
no significant weather observed at this time
TAF text:
FM070100 VRB03KT P6SM BKN250
Forecast period:
Saturday May 07 2016 01:00 UTC - Saturday May 07 2016 09:00 UTC
Forecast type:
FROM: standard forecast or significant change
Winds:
variable wind direction at 3.5 mph (3 knots: 1.5 m/s)
Visibility:
6 or more mile(s) (9.7+ km)
Ceiling:
25,000 feet AGL
Clouds:
Broken Cloud Cover at 25,000 feet AGL
Weather:
no significant weather observed at this time
TAF text:
FM070900 22005KT P6SM SCT050 BKN100
Forecast period:
Saturday May 07 2016 09:00 UTC - Saturday May 07 2016 12:00 UTC
Forecast type:
FROM: standard forecast or significant change
Winds:
from the SW (220 degrees) at 5.8 mph (5 knots: 2.6 m/s)
Visibility:
6 or more mile(s) (9.7+ km)
Ceiling:
10,000 feet AGL
Clouds:
Scattered Clouds at 5,000 feet AGL
Broken Cloud Cover at 10,000 feet AGL
Weather:
no significant weather observed at this time
FBO's on the Field
FBO Company Facility Photos Services Transportation Aviation Fuel Prices: Prices include tax
Catering Weather Repair Courtesy Rental Type 100LL JetA JetA+ MOGAS 8087
 
Owosso Community Airport

This FBO has not yet been rated
FS:Avfuel
Last Updated: Apr-11
Login to update fuel prices
SS:
Contact Owosso Community AirportMore FBO Information
 
Add another FBO Facility Photos Catering Weather Repair Courtesy Rental Type 100LL JetA JetA+ MOGAS 8087
Services Transportation Aviation Fuel Prices: Prices include tax


model-print
model-print
model-print
model-print